Relax — ILWX2 — position and weather

sailwx.info

Track history (hours):
 
Tides and Currents Weather Stations Pressure Air Temp Water Temp Dewpoint Dewpoint Depression Visibility Wind Speed Wind Dir Waves Ship Positions

Relax

Last reported at 2015-May-22 09:10 UTC. Time now 2015-May-22 22:12 UTC.
Position N 40°34' E 014°15'.

MMSI: 247277800.

Date/timePositionNaut miles runAvg speedWind from/ knotsBaromVisibWave heightAir tempDewpointWater temp
2015-May-22 09:10N 40°34' E 014°15'11 0.6
2015-May-21 15:24N 40°37' E 014°30'1112.2
2015-May-21 14:32N 40°34' E 014°17'1 1.1
2015-May-21 13:29N 40°33' E 014°16'0 0.0
2015-May-21 12:17N 40°33' E 014°16'0 0.0
2015-May-21 11:29N 40°33' E 014°16'1 0.3
2015-May-21 09:04N 40°34' E 014°16'4 7.0
2015-May-21 08:32N 40°34' E 014°21'5 0.2
2015-May-20 13:18N 40°33' E 014°14'1 1.3
2015-May-20 12:30N 40°33' E 014°16'0 0.0
2015-May-20 11:18N 40°33' E 014°16'0 0.0
2015-May-20 08:21N 40°33' E 014°16'1 0.9
2015-May-20 07:31N 40°34' E 014°16'1010.6
2015-May-20 06:33N 40°36' E 014°29'1 0.1
2015-May-19 15:28N 40°37' E 014°30'1212.7
2015-May-19 14:33N 40°34' E 014°15'1 0.7
2015-May-19 13:15N 40°34' E 014°14'0 0.0
2015-May-19 10:30N 40°34' E 014°14'0 0.0
2015-May-19 09:31N 40°34' E 014°14'5 4.9
2015-May-19 08:32N 40°34' E 014°21'8 0.5
2015-May-18 15:25N 40°37' E 014°30'1112.5
2015-May-18 14:33N 40°34' E 014°16'2 0.5
2015-May-18 10:28N 40°34' E 014°14'0 0.0
2015-May-18 09:24N 40°34' E 014°14'6 6.7
2015-May-18 08:30N 40°34' E 014°22'6 0.4
2015-May-17 15:13N 40°37' E 014°29'1015.1
2015-May-17 14:33N 40°34' E 014°16'2 1.8
2015-May-17 13:30N 40°33' E 014°15'1 0.3
2015-May-17 09:16N 40°33' E 014°16'4 5.1
2015-May-17 08:31N 40°34' E 014°21'  
2015-May-14 15:23N 40°36' E 014°28'10 9.7
2015-May-14 14:19N 40°33' E 014°14'0 0.5
2015-May-14 13:31N 40°34' E 014°14'0 0.0
2015-May-14 12:31N 40°34' E 014°14'0 0.0
2015-May-14 11:25N 40°34' E 014°14'0 0.2
2015-May-14 10:33N 40°34' E 014°14'0 0.0
2015-May-14 09:19N 40°34' E 014°14'6 7.1
2015-May-14 08:30N 40°34' E 014°22'6 0.3
2015-May-13 15:06N 40°36' E 014°28'1017.6
2015-May-13 14:32N 40°34' E 014°16'1 0.8
2015-May-13 13:12N 40°34' E 014°14'0 0.0
2015-May-13 12:28N 40°34' E 014°14'0 0.0
2015-May-13 11:33N 40°34' E 014°14'0 0.0
2015-May-13 10:21N 40°34' E 014°14'0 0.0
2015-May-13 09:33N 40°34' E 014°14'11 8.4
2015-May-13 08:16N 40°36' E 014°28'2 0.1
2015-May-12 15:29N 40°37' E 014°31'1112.2
2015-May-12 14:33N 40°34' E 014°16'0 0.1
2015-May-12 09:13N 40°34' E 014°16'  
Track history (hours):
 
Tides and Currents Weather Stations Pressure Air Temp Water Temp Dewpoint Dewpoint Depression Visibility Wind Speed Wind Dir Waves Ship Positions

Relax

Last reported at 2015-May-22 09:10 UTC. Time now 2015-May-22 22:12 UTC.
Position N 40°34' E 014°15'.

MMSI: 247277800.

Date/timePositionNaut miles runAvg speedWind from/ knotsBaromVisibWave heightAir tempDewpointWater temp
2015-May-22 09:10N 40°34' E 014°15'11 0.6
2015-May-21 15:24N 40°37' E 014°30'1112.2
2015-May-21 14:32N 40°34' E 014°17'1 1.1
2015-May-21 13:29N 40°33' E 014°16'0 0.0
2015-May-21 12:17N 40°33' E 014°16'0 0.0
2015-May-21 11:29N 40°33' E 014°16'1 0.3
2015-May-21 09:04N 40°34' E 014°16'4 7.0
2015-May-21 08:32N 40°34' E 014°21'5 0.2
2015-May-20 13:18N 40°33' E 014°14'1 1.3
2015-May-20 12:30N 40°33' E 014°16'0 0.0
2015-May-20 11:18N 40°33' E 014°16'0 0.0
2015-May-20 08:21N 40°33' E 014°16'1 0.9
2015-May-20 07:31N 40°34' E 014°16'1010.6
2015-May-20 06:33N 40°36' E 014°29'1 0.1
2015-May-19 15:28N 40°37' E 014°30'1212.7
2015-May-19 14:33N 40°34' E 014°15'1 0.7
2015-May-19 13:15N 40°34' E 014°14'0 0.0
2015-May-19 10:30N 40°34' E 014°14'0 0.0
2015-May-19 09:31N 40°34' E 014°14'5 4.9
2015-May-19 08:32N 40°34' E 014°21'8 0.5
2015-May-18 15:25N 40°37' E 014°30'1112.5
2015-May-18 14:33N 40°34' E 014°16'2 0.5
2015-May-18 10:28N 40°34' E 014°14'0 0.0
2015-May-18 09:24N 40°34' E 014°14'6 6.7
2015-May-18 08:30N 40°34' E 014°22'6 0.4
2015-May-17 15:13N 40°37' E 014°29'1015.1
2015-May-17 14:33N 40°34' E 014°16'2 1.8
2015-May-17 13:30N 40°33' E 014°15'1 0.3
2015-May-17 09:16N 40°33' E 014°16'4 5.1
2015-May-17 08:31N 40°34' E 014°21'  
2015-May-14 15:23N 40°36' E 014°28'10 9.7
2015-May-14 14:19N 40°33' E 014°14'0 0.5
2015-May-14 13:31N 40°34' E 014°14'0 0.0
2015-May-14 12:31N 40°34' E 014°14'0 0.0
2015-May-14 11:25N 40°34' E 014°14'0 0.2
2015-May-14 10:33N 40°34' E 014°14'0 0.0
2015-May-14 09:19N 40°34' E 014°14'6 7.1
2015-May-14 08:30N 40°34' E 014°22'6 0.3
2015-May-13 15:06N 40°36' E 014°28'1017.6
2015-May-13 14:32N 40°34' E 014°16'1 0.8
2015-May-13 13:12N 40°34' E 014°14'0 0.0
2015-May-13 12:28N 40°34' E 014°14'0 0.0
2015-May-13 11:33N 40°34' E 014°14'0 0.0
2015-May-13 10:21N 40°34' E 014°14'0 0.0
2015-May-13 09:33N 40°34' E 014°14'11 8.4
2015-May-13 08:16N 40°36' E 014°28'2 0.1
2015-May-12 15:29N 40°37' E 014°31'1112.2
2015-May-12 14:33N 40°34' E 014°16'0 0.1
2015-May-12 09:13N 40°34' E 014°16'  

Dump ship's entire track history